sensor_id;sensor_type;location;lat;lon;timestamp;P1;durP1;ratioP1;P2;durP2;ratioP2
57947;SDS011;43754;56.992;24.292;2022-11-03T00:00:09;63.33;;;23.80;;
57947;SDS011;43754;56.992;24.292;2022-11-03T00:02:43;41.60;;;20.52;;
57947;SDS011;43754;56.992;24.292;2022-11-03T00:05:16;40.03;;;17.95;;
57947;SDS011;43754;56.992;24.292;2022-11-03T00:08:07;50.70;;;17.80;;
57947;SDS011;43754;56.992;24.292;2022-11-03T00:10:39;55.38;;;19.45;;
57947;SDS011;43754;56.992;24.292;2022-11-03T00:13:11;38.90;;;16.73;;
57947;SDS011;43754;56.992;24.292;2022-11-03T00:15:46;74.80;;;20.50;;
57947;SDS011;43754;56.992;24.292;2022-11-03T00:18:19;37.90;;;15.98;;
57947;SDS011;43754;56.992;24.292;2022-11-03T00:20:56;32.95;;;14.82;;
57947;SDS011;43754;56.992;24.292;2022-11-03T00:23:29;38.28;;;15.45;;
57947;SDS011;43754;56.992;24.292;2022-11-03T00:26:03;32.78;;;14.27;;
57947;SDS011;43754;56.992;24.292;2022-11-03T00:28:36;41.28;;;14.60;;
57947;SDS011;43754;56.992;24.292;2022-11-03T00:31:09;42.05;;;15.48;;
57947;SDS011;43754;56.992;24.292;2022-11-03T00:33:43;54.50;;;16.65;;
57947;SDS011;43754;56.992;24.292;2022-11-03T00:36:17;45.35;;;16.35;;
57947;SDS011;43754;56.992;24.292;2022-11-03T00:38:51;54.13;;;18.33;;
57947;SDS011;43754;56.992;24.292;2022-11-03T00:41:24;56.55;;;17.45;;
57947;SDS011;43754;56.992;24.292;2022-11-03T00:43:57;28.45;;;13.93;;
57947;SDS011;43754;56.992;24.292;2022-11-03T00:46:30;41.50;;;14.65;;
57947;SDS011;43754;56.992;24.292;2022-11-03T00:49:06;55.35;;;17.20;;
57947;SDS011;43754;56.992;24.292;2022-11-03T00:51:39;38.88;;;15.75;;
57947;SDS011;43754;56.992;24.292;2022-11-03T00:54:11;35.38;;;14.43;;
57947;SDS011;43754;56.992;24.292;2022-11-03T00:56:43;36.78;;;15.63;;
57947;SDS011;43754;56.992;24.292;2022-11-03T00:59:15;63.50;;;18.80;;
57947;SDS011;43754;56.992;24.292;2022-11-03T01:01:47;42.72;;;16.60;;
57947;SDS011;43754;56.992;24.292;2022-11-03T01:04:19;34.70;;;15.45;;
57947;SDS011;43754;56.992;24.292;2022-11-03T01:07:11;76.15;;;17.00;;
57947;SDS011;43754;56.992;24.292;2022-11-03T01:09:43;39.03;;;14.75;;
57947;SDS011;43754;56.992;24.292;2022-11-03T01:12:15;55.60;;;16.73;;
57947;SDS011;43754;56.992;24.292;2022-11-03T01:14:50;47.30;;;16.38;;
57947;SDS011;43754;56.992;24.292;2022-11-03T01:17:23;40.65;;;16.17;;
57947;SDS011;43754;56.992;24.292;2022-11-03T01:19:56;92.28;;;18.90;;
57947;SDS011;43754;56.992;24.292;2022-11-03T01:22:29;70.22;;;19.67;;
57947;SDS011;43754;56.992;24.292;2022-11-03T01:25:01;108.95;;;19.98;;
57947;SDS011;43754;56.992;24.292;2022-11-03T01:27:33;90.60;;;21.17;;
57947;SDS011;43754;56.992;24.292;2022-11-03T01:30:06;77.20;;;19.02;;
57947;SDS011;43754;56.992;24.292;2022-11-03T01:32:38;105.65;;;23.95;;
57947;SDS011;43754;56.992;24.292;2022-11-03T01:35:10;59.63;;;20.52;;
57947;SDS011;43754;56.992;24.292;2022-11-03T01:37:43;45.90;;;19.42;;
57947;SDS011;43754;56.992;24.292;2022-11-03T01:40:15;32.92;;;18.30;;
57947;SDS011;43754;56.992;24.292;2022-11-03T01:42:47;32.20;;;18.25;;
57947;SDS011;43754;56.992;24.292;2022-11-03T01:45:19;50.65;;;20.33;;
57947;SDS011;43754;56.992;24.292;2022-11-03T01:47:52;26.67;;;16.88;;
57947;SDS011;43754;56.992;24.292;2022-11-03T01:50:24;27.92;;;16.33;;
57947;SDS011;43754;56.992;24.292;2022-11-03T01:52:57;33.22;;;16.60;;
57947;SDS011;43754;56.992;24.292;2022-11-03T01:58:58;36.05;;;17.27;;
57947;SDS011;43754;56.992;24.292;2022-11-03T02:01:30;31.50;;;16.52;;
57947;SDS011;43754;56.992;24.292;2022-11-03T02:04:03;27.10;;;14.65;;
57947;SDS011;43754;56.992;24.292;2022-11-03T02:09:51;31.75;;;15.43;;
57947;SDS011;43754;56.992;24.292;2022-11-03T02:12:23;36.13;;;18.70;;
57947;SDS011;43754;56.992;24.292;2022-11-03T02:14:57;22.08;;;13.88;;
57947;SDS011;43754;56.992;24.292;2022-11-03T02:17:33;25.90;;;13.48;;
57947;SDS011;43754;56.992;24.292;2022-11-03T02:20:08;27.25;;;14.98;;
57947;SDS011;43754;56.992;24.292;2022-11-03T02:22:49;23.27;;;12.93;;
57947;SDS011;43754;56.992;24.292;2022-11-03T02:25:41;23.75;;;13.38;;
57947;SDS011;43754;56.992;24.292;2022-11-03T02:28:15;27.58;;;14.38;;
57947;SDS011;43754;56.992;24.292;2022-11-03T02:30:51;24.50;;;13.02;;
57947;SDS011;43754;56.992;24.292;2022-11-03T02:33:34;26.33;;;12.90;;
57947;SDS011;43754;56.992;24.292;2022-11-03T02:36:14;22.40;;;12.60;;
57947;SDS011;43754;56.992;24.292;2022-11-03T02:38:52;28.83;;;13.90;;
57947;SDS011;43754;56.992;24.292;2022-11-03T02:41:30;21.20;;;11.63;;
57947;SDS011;43754;56.992;24.292;2022-11-03T02:44:06;30.08;;;15.25;;
57947;SDS011;43754;56.992;24.292;2022-11-03T02:46:45;31.45;;;13.60;;
57947;SDS011;43754;56.992;24.292;2022-11-03T02:49:21;29.20;;;15.43;;
57947;SDS011;43754;56.992;24.292;2022-11-03T02:51:57;26.95;;;13.65;;
57947;SDS011;43754;56.992;24.292;2022-11-03T02:54:30;24.75;;;12.68;;
57947;SDS011;43754;56.992;24.292;2022-11-03T02:57:08;21.33;;;10.32;;
57947;SDS011;43754;56.992;24.292;2022-11-03T02:59:56;22.08;;;11.73;;
57947;SDS011;43754;56.992;24.292;2022-11-03T03:02:34;19.55;;;11.23;;
57947;SDS011;43754;56.992;24.292;2022-11-03T03:05:10;22.85;;;11.25;;
57947;SDS011;43754;56.992;24.292;2022-11-03T03:07:45;22.10;;;11.57;;
57947;SDS011;43754;56.992;24.292;2022-11-03T03:10:22;17.58;;;11.35;;
57947;SDS011;43754;56.992;24.292;2022-11-03T03:12:58;22.50;;;12.15;;
57947;SDS011;43754;56.992;24.292;2022-11-03T03:15:35;31.75;;;15.52;;
57947;SDS011;43754;56.992;24.292;2022-11-03T03:18:15;20.77;;;12.70;;
57947;SDS011;43754;56.992;24.292;2022-11-03T03:20:54;27.83;;;13.93;;
57947;SDS011;43754;56.992;24.292;2022-11-03T03:23:28;27.02;;;14.27;;
57947;SDS011;43754;56.992;24.292;2022-11-03T03:26:06;24.60;;;13.80;;
57947;SDS011;43754;56.992;24.292;2022-11-03T03:28:42;19.10;;;12.65;;
57947;SDS011;43754;56.992;24.292;2022-11-03T03:31:20;30.50;;;16.60;;
57947;SDS011;43754;56.992;24.292;2022-11-03T03:33:55;17.00;;;11.38;;
57947;SDS011;43754;56.992;24.292;2022-11-03T03:36:35;17.35;;;12.07;;
57947;SDS011;43754;56.992;24.292;2022-11-03T03:39:10;19.13;;;12.57;;
57947;SDS011;43754;56.992;24.292;2022-11-03T03:41:45;26.60;;;15.35;;
57947;SDS011;43754;56.992;24.292;2022-11-03T03:44:20;25.02;;;14.98;;
57947;SDS011;43754;56.992;24.292;2022-11-03T03:46:54;24.50;;;13.70;;
57947;SDS011;43754;56.992;24.292;2022-11-03T03:49:30;22.50;;;13.25;;
57947;SDS011;43754;56.992;24.292;2022-11-03T03:52:02;23.02;;;11.00;;
57947;SDS011;43754;56.992;24.292;2022-11-03T03:54:34;23.83;;;14.05;;
57947;SDS011;43754;56.992;24.292;2022-11-03T03:57:08;25.33;;;14.38;;
57947;SDS011;43754;56.992;24.292;2022-11-03T03:59:45;22.33;;;14.00;;
57947;SDS011;43754;56.992;24.292;2022-11-03T04:02:18;22.77;;;12.93;;
57947;SDS011;43754;56.992;24.292;2022-11-03T04:04:50;25.13;;;13.30;;
57947;SDS011;43754;56.992;24.292;2022-11-03T04:07:22;24.35;;;13.48;;
57947;SDS011;43754;56.992;24.292;2022-11-03T04:10:14;22.85;;;13.38;;
57947;SDS011;43754;56.992;24.292;2022-11-03T04:12:47;27.15;;;13.52;;
57947;SDS011;43754;56.992;24.292;2022-11-03T04:15:39;27.48;;;14.60;;
57947;SDS011;43754;56.992;24.292;2022-11-03T04:18:23;42.80;;;17.35;;
57947;SDS011;43754;56.992;24.292;2022-11-03T04:24:04;36.15;;;14.05;;
57947;SDS011;43754;56.992;24.292;2022-11-03T04:26:36;27.10;;;14.80;;
57947;SDS011;43754;56.992;24.292;2022-11-03T04:29:08;29.88;;;14.73;;
57947;SDS011;43754;56.992;24.292;2022-11-03T04:31:43;27.35;;;13.90;;
57947;SDS011;43754;56.992;24.292;2022-11-03T04:34:15;25.05;;;13.57;;
57947;SDS011;43754;56.992;24.292;2022-11-03T04:36:47;31.52;;;16.85;;
57947;SDS011;43754;56.992;24.292;2022-11-03T04:39:19;27.90;;;13.93;;
57947;SDS011;43754;56.992;24.292;2022-11-03T04:41:51;21.70;;;12.25;;
57947;SDS011;43754;56.992;24.292;2022-11-03T04:44:22;30.13;;;15.00;;
57947;SDS011;43754;56.992;24.292;2022-11-03T04:46:56;28.77;;;13.75;;
57947;SDS011;43754;56.992;24.292;2022-11-03T04:49:28;24.83;;;13.30;;
57947;SDS011;43754;56.992;24.292;2022-11-03T04:52:00;28.00;;;15.40;;
57947;SDS011;43754;56.992;24.292;2022-11-03T04:54:32;23.67;;;13.02;;
57947;SDS011;43754;56.992;24.292;2022-11-03T04:57:07;24.10;;;13.85;;
57947;SDS011;43754;56.992;24.292;2022-11-03T04:59:42;26.48;;;14.10;;
57947;SDS011;43754;56.992;24.292;2022-11-03T05:02:18;25.73;;;14.38;;
57947;SDS011;43754;56.992;24.292;2022-11-03T05:04:51;24.23;;;14.82;;
57947;SDS011;43754;56.992;24.292;2022-11-03T05:07:25;23.95;;;12.98;;
57947;SDS011;43754;56.992;24.292;2022-11-03T05:10:01;21.90;;;13.80;;
57947;SDS011;43754;56.992;24.292;2022-11-03T05:12:37;24.75;;;13.63;;
57947;SDS011;43754;56.992;24.292;2022-11-03T05:15:13;26.60;;;14.82;;
57947;SDS011;43754;56.992;24.292;2022-11-03T05:17:59;23.42;;;13.65;;
57947;SDS011;43754;56.992;24.292;2022-11-03T05:20:35;26.63;;;16.45;;
57947;SDS011;43754;56.992;24.292;2022-11-03T05:23:10;25.60;;;14.35;;
57947;SDS011;43754;56.992;24.292;2022-11-03T05:25:43;25.58;;;15.65;;
57947;SDS011;43754;56.992;24.292;2022-11-03T05:28:19;36.83;;;19.15;;
57947;SDS011;43754;56.992;24.292;2022-11-03T05:30:54;30.40;;;17.25;;
57947;SDS011;43754;56.992;24.292;2022-11-03T05:33:28;25.50;;;15.40;;
57947;SDS011;43754;56.992;24.292;2022-11-03T05:36:06;61.20;;;41.13;;
57947;SDS011;43754;56.992;24.292;2022-11-03T05:38:42;45.97;;;30.40;;
57947;SDS011;43754;56.992;24.292;2022-11-03T05:41:15;54.05;;;28.50;;
57947;SDS011;43754;56.992;24.292;2022-11-03T05:43:53;47.08;;;24.75;;
57947;SDS011;43754;56.992;24.292;2022-11-03T05:46:29;41.20;;;22.13;;
57947;SDS011;43754;56.992;24.292;2022-11-03T05:49:05;50.00;;;24.65;;
57947;SDS011;43754;56.992;24.292;2022-11-03T05:51:38;46.85;;;20.83;;
57947;SDS011;43754;56.992;24.292;2022-11-03T05:54:16;36.65;;;19.10;;
57947;SDS011;43754;56.992;24.292;2022-11-03T05:56:51;33.22;;;16.00;;
57947;SDS011;43754;56.992;24.292;2022-11-03T05:59:24;38.35;;;18.20;;
57947;SDS011;43754;56.992;24.292;2022-11-03T06:01:58;32.95;;;16.02;;
57947;SDS011;43754;56.992;24.292;2022-11-03T06:04:33;32.38;;;14.57;;
57947;SDS011;43754;56.992;24.292;2022-11-03T06:07:11;41.17;;;21.05;;
57947;SDS011;43754;56.992;24.292;2022-11-03T06:09:51;30.42;;;15.48;;
57947;SDS011;43754;56.992;24.292;2022-11-03T06:12:23;31.98;;;13.90;;
57947;SDS011;43754;56.992;24.292;2022-11-03T06:14:56;26.27;;;14.73;;
57947;SDS011;43754;56.992;24.292;2022-11-03T06:17:28;36.90;;;16.27;;
57947;SDS011;43754;56.992;24.292;2022-11-03T06:20:02;30.90;;;12.45;;
57947;SDS011;43754;56.992;24.292;2022-11-03T06:22:46;35.83;;;14.52;;
57947;SDS011;43754;56.992;24.292;2022-11-03T06:25:22;20.23;;;11.30;;
57947;SDS011;43754;56.992;24.292;2022-11-03T06:27:59;22.00;;;12.00;;
57947;SDS011;43754;56.992;24.292;2022-11-03T06:30:35;29.40;;;14.50;;
57947;SDS011;43754;56.992;24.292;2022-11-03T06:33:17;19.17;;;10.27;;
57947;SDS011;43754;56.992;24.292;2022-11-03T06:35:54;28.70;;;10.80;;
57947;SDS011;43754;56.992;24.292;2022-11-03T06:38:32;25.47;;;13.73;;
57947;SDS011;43754;56.992;24.292;2022-11-03T06:41:06;25.60;;;13.20;;
57947;SDS011;43754;56.992;24.292;2022-11-03T06:43:48;24.38;;;12.90;;
57947;SDS011;43754;56.992;24.292;2022-11-03T06:46:21;23.42;;;11.48;;
57947;SDS011;43754;56.992;24.292;2022-11-03T06:48:56;19.33;;;11.32;;
57947;SDS011;43754;56.992;24.292;2022-11-03T06:51:33;19.95;;;11.57;;
57947;SDS011;43754;56.992;24.292;2022-11-03T06:54:07;23.20;;;12.43;;
57947;SDS011;43754;56.992;24.292;2022-11-03T06:56:41;28.52;;;12.68;;
57947;SDS011;43754;56.992;24.292;2022-11-03T06:59:14;21.80;;;10.93;;
57947;SDS011;43754;56.992;24.292;2022-11-03T07:01:47;23.33;;;12.48;;
57947;SDS011;43754;56.992;24.292;2022-11-03T07:04:24;26.48;;;12.60;;
57947;SDS011;43754;56.992;24.292;2022-11-03T07:07:01;26.13;;;11.93;;
57947;SDS011;43754;56.992;24.292;2022-11-03T07:09:33;21.10;;;11.77;;
57947;SDS011;43754;56.992;24.292;2022-11-03T07:12:07;16.45;;;9.48;;
57947;SDS011;43754;56.992;24.292;2022-11-03T07:14:46;19.20;;;10.27;;
57947;SDS011;43754;56.992;24.292;2022-11-03T07:17:18;14.60;;;9.07;;
57947;SDS011;43754;56.992;24.292;2022-11-03T07:19:53;22.23;;;10.75;;
57947;SDS011;43754;56.992;24.292;2022-11-03T07:22:26;17.27;;;12.43;;
57947;SDS011;43754;56.992;24.292;2022-11-03T07:24:58;15.75;;;8.80;;
57947;SDS011;43754;56.992;24.292;2022-11-03T07:27:34;17.95;;;9.05;;
57947;SDS011;43754;56.992;24.292;2022-11-03T07:30:12;15.65;;;9.25;;
57947;SDS011;43754;56.992;24.292;2022-11-03T07:32:49;22.27;;;10.90;;
57947;SDS011;43754;56.992;24.292;2022-11-03T07:35:32;24.33;;;10.13;;
57947;SDS011;43754;56.992;24.292;2022-11-03T07:38:28;18.83;;;9.55;;
57947;SDS011;43754;56.992;24.292;2022-11-03T07:41:01;20.55;;;10.07;;
57947;SDS011;43754;56.992;24.292;2022-11-03T07:43:33;18.65;;;9.18;;
57947;SDS011;43754;56.992;24.292;2022-11-03T07:46:07;22.25;;;14.45;;
57947;SDS011;43754;56.992;24.292;2022-11-03T07:48:47;30.67;;;13.20;;
57947;SDS011;43754;56.992;24.292;2022-11-03T07:51:21;21.67;;;12.82;;
57947;SDS011;43754;56.992;24.292;2022-11-03T07:53:57;31.60;;;17.92;;
57947;SDS011;43754;56.992;24.292;2022-11-03T07:56:34;25.13;;;14.00;;
57947;SDS011;43754;56.992;24.292;2022-11-03T07:59:11;26.95;;;15.05;;
57947;SDS011;43754;56.992;24.292;2022-11-03T08:01:47;30.05;;;14.95;;
57947;SDS011;43754;56.992;24.292;2022-11-03T08:04:20;32.08;;;16.75;;
57947;SDS011;43754;56.992;24.292;2022-11-03T08:06:54;24.20;;;13.80;;
57947;SDS011;43754;56.992;24.292;2022-11-03T08:09:27;28.13;;;14.68;;
57947;SDS011;43754;56.992;24.292;2022-11-03T08:11:59;27.45;;;17.75;;
57947;SDS011;43754;56.992;24.292;2022-11-03T08:14:31;24.65;;;16.17;;
57947;SDS011;43754;56.992;24.292;2022-11-03T08:17:04;39.20;;;18.55;;
57947;SDS011;43754;56.992;24.292;2022-11-03T08:19:36;30.75;;;16.15;;
57947;SDS011;43754;56.992;24.292;2022-11-03T08:22:08;32.45;;;20.77;;
57947;SDS011;43754;56.992;24.292;2022-11-03T08:24:42;36.72;;;20.80;;
57947;SDS011;43754;56.992;24.292;2022-11-03T08:27:14;26.15;;;17.58;;
57947;SDS011;43754;56.992;24.292;2022-11-03T08:29:45;31.63;;;19.80;;
57947;SDS011;43754;56.992;24.292;2022-11-03T08:32:18;32.08;;;17.77;;
57947;SDS011;43754;56.992;24.292;2022-11-03T08:34:50;33.38;;;18.35;;
57947;SDS011;43754;56.992;24.292;2022-11-03T08:37:22;27.58;;;15.00;;
57947;SDS011;43754;56.992;24.292;2022-11-03T08:39:55;30.10;;;15.85;;
57947;SDS011;43754;56.992;24.292;2022-11-03T08:42:27;30.88;;;15.45;;
57947;SDS011;43754;56.992;24.292;2022-11-03T08:44:59;28.13;;;14.98;;
57947;SDS011;43754;56.992;24.292;2022-11-03T08:47:31;27.55;;;14.23;;
57947;SDS011;43754;56.992;24.292;2022-11-03T08:50:03;26.63;;;15.30;;
57947;SDS011;43754;56.992;24.292;2022-11-03T08:52:36;34.90;;;18.15;;
57947;SDS011;43754;56.992;24.292;2022-11-03T08:55:09;30.77;;;20.55;;
57947;SDS011;43754;56.992;24.292;2022-11-03T08:57:41;25.00;;;14.45;;
57947;SDS011;43754;56.992;24.292;2022-11-03T09:00:14;44.65;;;30.60;;
57947;SDS011;43754;56.992;24.292;2022-11-03T09:02:47;35.75;;;13.30;;
57947;SDS011;43754;56.992;24.292;2022-11-03T09:05:19;27.92;;;13.90;;
57947;SDS011;43754;56.992;24.292;2022-11-03T09:07:51;19.75;;;10.05;;
57947;SDS011;43754;56.992;24.292;2022-11-03T09:10:44;22.83;;;8.95;;
57947;SDS011;43754;56.992;24.292;2022-11-03T09:13:16;22.63;;;10.05;;
57947;SDS011;43754;56.992;24.292;2022-11-03T09:15:48;22.83;;;9.48;;
57947;SDS011;43754;56.992;24.292;2022-11-03T09:18:20;16.90;;;7.53;;
57947;SDS011;43754;56.992;24.292;2022-11-03T09:20:53;22.15;;;8.52;;
57947;SDS011;43754;56.992;24.292;2022-11-03T09:23:25;23.52;;;8.60;;
57947;SDS011;43754;56.992;24.292;2022-11-03T09:25:58;20.70;;;6.82;;
57947;SDS011;43754;56.992;24.292;2022-11-03T09:28:30;17.90;;;6.40;;
57947;SDS011;43754;56.992;24.292;2022-11-03T09:31:02;19.67;;;7.60;;
57947;SDS011;43754;56.992;24.292;2022-11-03T09:33:34;24.13;;;7.60;;
57947;SDS011;43754;56.992;24.292;2022-11-03T09:36:06;20.85;;;7.07;;
57947;SDS011;43754;56.992;24.292;2022-11-03T09:38:39;17.98;;;7.20;;
57947;SDS011;43754;56.992;24.292;2022-11-03T09:41:12;20.88;;;6.68;;
57947;SDS011;43754;56.992;24.292;2022-11-03T09:43:57;22.48;;;8.45;;
57947;SDS011;43754;56.992;24.292;2022-11-03T09:46:30;18.73;;;7.18;;
57947;SDS011;43754;56.992;24.292;2022-11-03T09:49:05;22.60;;;7.22;;
57947;SDS011;43754;56.992;24.292;2022-11-03T09:51:38;20.45;;;6.03;;
57947;SDS011;43754;56.992;24.292;2022-11-03T09:54:11;21.20;;;6.85;;
57947;SDS011;43754;56.992;24.292;2022-11-03T09:56:47;17.95;;;6.32;;
57947;SDS011;43754;56.992;24.292;2022-11-03T09:59:20;17.88;;;5.55;;
57947;SDS011;43754;56.992;24.292;2022-11-03T10:01:53;18.20;;;7.47;;
57947;SDS011;43754;56.992;24.292;2022-11-03T10:04:26;22.45;;;7.55;;
57947;SDS011;43754;56.992;24.292;2022-11-03T10:06:59;16.15;;;6.13;;
57947;SDS011;43754;56.992;24.292;2022-11-03T10:09:31;17.58;;;7.22;;
57947;SDS011;43754;56.992;24.292;2022-11-03T10:12:07;18.70;;;7.88;;
57947;SDS011;43754;56.992;24.292;2022-11-03T10:14:40;17.55;;;6.93;;
57947;SDS011;43754;56.992;24.292;2022-11-03T10:17:14;19.15;;;7.70;;
57947;SDS011;43754;56.992;24.292;2022-11-03T10:19:49;19.67;;;7.35;;
57947;SDS011;43754;56.992;24.292;2022-11-03T10:22:22;18.27;;;5.70;;
57947;SDS011;43754;56.992;24.292;2022-11-03T10:28:12;20.73;;;7.05;;
57947;SDS011;43754;56.992;24.292;2022-11-03T10:30:49;13.90;;;6.90;;
57947;SDS011;43754;56.992;24.292;2022-11-03T10:33:50;13.57;;;6.00;;
57947;SDS011;43754;56.992;24.292;2022-11-03T10:36:24;15.87;;;7.10;;
57947;SDS011;43754;56.992;24.292;2022-11-03T10:38:57;20.73;;;6.30;;
57947;SDS011;43754;56.992;24.292;2022-11-03T10:41:30;20.95;;;6.70;;
57947;SDS011;43754;56.992;24.292;2022-11-03T10:44:04;14.18;;;6.53;;
57947;SDS011;43754;56.992;24.292;2022-11-03T10:46:54;15.40;;;6.38;;
57947;SDS011;43754;56.992;24.292;2022-11-03T10:49:28;17.65;;;6.15;;
57947;SDS011;43754;56.992;24.292;2022-11-03T10:52:06;15.82;;;6.40;;
57947;SDS011;43754;56.992;24.292;2022-11-03T10:54:49;18.40;;;6.03;;
57947;SDS011;43754;56.992;24.292;2022-11-03T10:57:22;19.52;;;6.63;;
57947;SDS011;43754;56.992;24.292;2022-11-03T10:59:56;14.88;;;5.45;;
57947;SDS011;43754;56.992;24.292;2022-11-03T11:02:28;19.35;;;5.68;;
57947;SDS011;43754;56.992;24.292;2022-11-03T11:05:07;18.80;;;5.95;;
57947;SDS011;43754;56.992;24.292;2022-11-03T11:07:44;20.15;;;5.82;;
57947;SDS011;43754;56.992;24.292;2022-11-03T11:10:18;17.52;;;6.40;;
57947;SDS011;43754;56.992;24.292;2022-11-03T11:16:00;22.23;;;8.40;;
57947;SDS011;43754;56.992;24.292;2022-11-03T11:21:49;15.85;;;6.97;;
57947;SDS011;43754;56.992;24.292;2022-11-03T11:27:53;18.08;;;6.45;;
57947;SDS011;43754;56.992;24.292;2022-11-03T11:40:09;16.45;;;6.55;;
57947;SDS011;43754;56.992;24.292;2022-11-03T11:51:49;16.35;;;7.70;;
57947;SDS011;43754;56.992;24.292;2022-11-03T11:54:22;13.88;;;7.85;;
57947;SDS011;43754;56.992;24.292;2022-11-03T11:56:54;16.67;;;7.35;;
57947;SDS011;43754;56.992;24.292;2022-11-03T11:59:26;15.95;;;7.00;;
57947;SDS011;43754;56.992;24.292;2022-11-03T12:01:58;15.52;;;7.53;;
57947;SDS011;43754;56.992;24.292;2022-11-03T12:04:30;10.82;;;7.32;;
57947;SDS011;43754;56.992;24.292;2022-11-03T12:07:05;13.05;;;8.45;;
57947;SDS011;43754;56.992;24.292;2022-11-03T12:09:42;14.00;;;7.90;;
57947;SDS011;43754;56.992;24.292;2022-11-03T12:15:46;15.27;;;10.25;;
57947;SDS011;43754;56.992;24.292;2022-11-03T12:18:29;16.98;;;9.98;;
57947;SDS011;43754;56.992;24.292;2022-11-03T12:21:10;19.00;;;10.45;;
57947;SDS011;43754;56.992;24.292;2022-11-03T12:23:46;15.82;;;9.63;;
57947;SDS011;43754;56.992;24.292;2022-11-03T12:29:10;14.98;;;9.23;;
57947;SDS011;43754;56.992;24.292;2022-11-03T12:31:42;18.92;;;10.65;;
57947;SDS011;43754;56.992;24.292;2022-11-03T12:34:14;22.20;;;13.05;;
57947;SDS011;43754;56.992;24.292;2022-11-03T12:36:47;17.90;;;12.07;;
57947;SDS011;43754;56.992;24.292;2022-11-03T12:39:27;21.67;;;12.57;;
57947;SDS011;43754;56.992;24.292;2022-11-03T12:41:59;21.73;;;13.00;;
57947;SDS011;43754;56.992;24.292;2022-11-03T12:44:32;16.67;;;13.13;;
57947;SDS011;43754;56.992;24.292;2022-11-03T12:47:04;17.35;;;12.63;;
57947;SDS011;43754;56.992;24.292;2022-11-03T12:49:36;18.20;;;12.25;;
57947;SDS011;43754;56.992;24.292;2022-11-03T12:52:08;19.85;;;11.52;;
57947;SDS011;43754;56.992;24.292;2022-11-03T12:54:42;21.73;;;11.40;;
57947;SDS011;43754;56.992;24.292;2022-11-03T12:57:15;18.40;;;11.25;;
57947;SDS011;43754;56.992;24.292;2022-11-03T12:59:47;19.65;;;10.38;;
57947;SDS011;43754;56.992;24.292;2022-11-03T13:02:19;23.73;;;11.80;;
57947;SDS011;43754;56.992;24.292;2022-11-03T13:04:51;12.30;;;6.03;;
57947;SDS011;43754;56.992;24.292;2022-11-03T13:07:23;17.25;;;6.40;;
57947;SDS011;43754;56.992;24.292;2022-11-03T13:10:02;17.05;;;6.65;;
57947;SDS011;43754;56.992;24.292;2022-11-03T13:12:35;11.23;;;5.32;;
57947;SDS011;43754;56.992;24.292;2022-11-03T13:15:11;8.55;;;3.90;;
57947;SDS011;43754;56.992;24.292;2022-11-03T13:17:46;15.63;;;4.22;;
57947;SDS011;43754;56.992;24.292;2022-11-03T13:20:38;11.52;;;3.90;;
57947;SDS011;43754;56.992;24.292;2022-11-03T13:23:10;13.70;;;3.63;;
57947;SDS011;43754;56.992;24.292;2022-11-03T13:25:44;8.55;;;2.35;;
57947;SDS011;43754;56.992;24.292;2022-11-03T13:28:16;9.93;;;2.65;;
57947;SDS011;43754;56.992;24.292;2022-11-03T13:30:49;11.48;;;2.78;;
57947;SDS011;43754;56.992;24.292;2022-11-03T13:33:20;17.58;;;7.88;;
57947;SDS011;43754;56.992;24.292;2022-11-03T13:35:53;18.23;;;6.95;;
57947;SDS011;43754;56.992;24.292;2022-11-03T13:38:25;18.92;;;9.25;;
57947;SDS011;43754;56.992;24.292;2022-11-03T13:40:58;12.82;;;5.78;;
57947;SDS011;43754;56.992;24.292;2022-11-03T13:43:38;10.13;;;4.22;;
57947;SDS011;43754;56.992;24.292;2022-11-03T13:46:10;10.90;;;4.07;;
57947;SDS011;43754;56.992;24.292;2022-11-03T13:48:43;9.35;;;3.95;;
57947;SDS011;43754;56.992;24.292;2022-11-03T13:51:35;11.75;;;5.35;;
57947;SDS011;43754;56.992;24.292;2022-11-03T13:54:07;14.30;;;5.72;;
57947;SDS011;43754;56.992;24.292;2022-11-03T13:57:00;12.70;;;5.40;;
57947;SDS011;43754;56.992;24.292;2022-11-03T13:59:52;7.65;;;3.95;;
57947;SDS011;43754;56.992;24.292;2022-11-03T14:02:24;9.25;;;3.22;;
57947;SDS011;43754;56.992;24.292;2022-11-03T14:05:16;12.98;;;3.03;;
57947;SDS011;43754;56.992;24.292;2022-11-03T14:07:48;8.10;;;3.70;;
57947;SDS011;43754;56.992;24.292;2022-11-03T14:10:21;11.35;;;4.25;;
57947;SDS011;43754;56.992;24.292;2022-11-03T14:12:54;6.75;;;3.92;;
57947;SDS011;43754;56.992;24.292;2022-11-03T14:15:26;7.05;;;3.60;;
57947;SDS011;43754;56.992;24.292;2022-11-03T14:17:58;10.40;;;5.13;;
57947;SDS011;43754;56.992;24.292;2022-11-03T14:20:30;10.77;;;3.95;;
57947;SDS011;43754;56.992;24.292;2022-11-03T14:23:02;15.07;;;4.35;;
57947;SDS011;43754;56.992;24.292;2022-11-03T14:25:34;13.43;;;3.88;;
57947;SDS011;43754;56.992;24.292;2022-11-03T14:28:08;10.80;;;3.80;;
57947;SDS011;43754;56.992;24.292;2022-11-03T14:30:40;8.55;;;3.60;;
57947;SDS011;43754;56.992;24.292;2022-11-03T14:33:12;10.15;;;3.97;;
57947;SDS011;43754;56.992;24.292;2022-11-03T14:35:44;15.52;;;6.07;;
57947;SDS011;43754;56.992;24.292;2022-11-03T14:38:16;13.98;;;5.35;;
57947;SDS011;43754;56.992;24.292;2022-11-03T14:40:48;11.40;;;4.32;;
57947;SDS011;43754;56.992;24.292;2022-11-03T14:43:40;10.90;;;4.78;;
57947;SDS011;43754;56.992;24.292;2022-11-03T14:46:12;10.73;;;4.68;;
57947;SDS011;43754;56.992;24.292;2022-11-03T14:48:44;11.35;;;5.43;;
57947;SDS011;43754;56.992;24.292;2022-11-03T14:51:16;12.90;;;6.55;;
57947;SDS011;43754;56.992;24.292;2022-11-03T14:53:48;10.45;;;6.40;;
57947;SDS011;43754;56.992;24.292;2022-11-03T14:56:20;16.75;;;8.52;;
57947;SDS011;43754;56.992;24.292;2022-11-03T14:58:54;15.35;;;6.47;;
57947;SDS011;43754;56.992;24.292;2022-11-03T15:01:26;16.95;;;7.93;;
57947;SDS011;43754;56.992;24.292;2022-11-03T15:03:58;11.18;;;5.45;;
57947;SDS011;43754;56.992;24.292;2022-11-03T15:06:30;16.27;;;5.80;;
57947;SDS011;43754;56.992;24.292;2022-11-03T15:09:02;13.30;;;5.45;;
57947;SDS011;43754;56.992;24.292;2022-11-03T15:11:35;20.85;;;6.65;;
57947;SDS011;43754;56.992;24.292;2022-11-03T15:14:09;9.95;;;5.57;;
57947;SDS011;43754;56.992;24.292;2022-11-03T15:16:42;12.40;;;5.22;;
57947;SDS011;43754;56.992;24.292;2022-11-03T15:19:16;13.50;;;7.10;;
57947;SDS011;43754;56.992;24.292;2022-11-03T15:21:49;15.85;;;6.03;;
57947;SDS011;43754;56.992;24.292;2022-11-03T15:24:21;14.48;;;6.75;;
57947;SDS011;43754;56.992;24.292;2022-11-03T15:27:13;14.35;;;7.07;;
57947;SDS011;43754;56.992;24.292;2022-11-03T15:29:46;15.90;;;7.03;;
57947;SDS011;43754;56.992;24.292;2022-11-03T15:32:18;18.23;;;9.15;;
57947;SDS011;43754;56.992;24.292;2022-11-03T15:34:50;14.05;;;8.70;;
57947;SDS011;43754;56.992;24.292;2022-11-03T15:37:22;20.35;;;10.02;;
57947;SDS011;43754;56.992;24.292;2022-11-03T15:39:54;19.70;;;10.63;;
57947;SDS011;43754;56.992;24.292;2022-11-03T15:42:30;18.52;;;10.85;;
57947;SDS011;43754;56.992;24.292;2022-11-03T15:45:04;19.52;;;11.77;;